createdAt,value
2019-02-24T00:02:34.066Z,99.90
2019-02-24T00:05:14.879Z,99.90
2019-02-24T00:07:55.841Z,99.90
2019-02-24T00:10:36.767Z,99.90
2019-02-24T00:13:17.828Z,99.90
2019-02-24T00:15:58.929Z,99.90
2019-02-24T00:18:39.932Z,99.90
2019-02-24T00:21:20.980Z,99.90
2019-02-24T00:24:01.974Z,99.90
2019-02-24T00:26:30.560Z,99.90
2019-02-24T00:29:18.374Z,99.90
2019-02-24T00:32:06.243Z,99.90
2019-02-24T00:34:47.165Z,99.90
2019-02-24T00:37:15.743Z,99.90
2019-02-24T00:40:04.103Z,99.90
2019-02-24T00:42:44.736Z,99.90
2019-02-24T00:45:13.247Z,99.90
2019-02-24T00:48:01.101Z,99.90
2019-02-24T00:50:41.972Z,99.90
2019-02-24T00:59:20.959Z,99.90
2019-02-24T01:02:01.932Z,99.90
2019-02-24T01:04:42.723Z,99.90
2019-02-24T01:07:23.514Z,99.90
2019-02-24T01:10:04.136Z,99.90
2019-02-24T01:12:45.055Z,99.90
2019-02-24T01:15:25.683Z,99.90
2019-02-24T01:18:06.219Z,99.90
2019-02-24T01:20:46.753Z,99.90
2019-02-24T01:23:27.554Z,99.90
2019-02-24T01:26:08.390Z,99.90
2019-02-24T01:28:49.309Z,99.90
2019-02-24T01:31:30.090Z,99.90
2019-02-24T01:34:10.623Z,99.90
2019-02-24T01:36:51.812Z,99.90
2019-02-24T01:39:32.779Z,99.90
2019-02-24T01:42:13.613Z,99.90
2019-02-24T01:44:54.426Z,99.90
2019-02-24T01:47:35.427Z,99.90
2019-02-24T01:50:16.072Z,99.90
2019-02-24T01:52:44.576Z,99.90
2019-02-24T01:55:32.452Z,99.90
2019-02-24T01:58:20.275Z,99.90
2019-02-24T02:01:01.504Z,99.90
2019-02-24T02:03:42.192Z,99.90
2019-02-24T02:06:23.243Z,99.90
2019-02-24T02:09:04.212Z,99.90
2019-02-24T02:11:44.907Z,99.90
2019-02-24T02:14:25.920Z,99.90
2019-02-24T02:17:06.564Z,99.90
2019-02-24T02:19:47.424Z,99.90
2019-02-24T02:22:27.955Z,99.90
2019-02-24T02:25:08.490Z,99.90
2019-02-24T02:27:49.283Z,99.90
2019-02-24T02:30:30.199Z,99.90
2019-02-24T02:33:11.004Z,99.90
2019-02-24T02:35:52.013Z,99.90
2019-02-24T02:38:32.796Z,99.90
2019-02-24T02:41:13.705Z,99.90
2019-02-24T02:43:54.215Z,99.90
2019-02-24T02:46:35.036Z,99.90
2019-02-24T02:49:16.021Z,99.90
2019-02-24T02:51:56.917Z,99.90
2019-02-24T02:54:37.460Z,99.90
2019-02-24T02:57:18.376Z,99.90
2019-02-24T02:59:58.815Z,99.90
2019-02-24T03:02:39.769Z,99.90
2019-02-24T03:05:20.717Z,99.90
2019-02-24T03:10:54.916Z,99.90
2019-02-24T03:13:35.992Z,99.90
2019-02-24T03:16:18.468Z,99.90
2019-02-24T03:18:59.554Z,99.90
2019-02-24T03:21:40.260Z,99.90
2019-02-24T03:24:09.132Z,99.90
2019-02-24T03:26:56.952Z,99.90
2019-02-24T03:29:44.748Z,99.90
2019-02-24T03:32:25.342Z,99.90
2019-02-24T03:35:07.798Z,99.90
2019-02-24T03:37:48.791Z,99.90
2019-02-24T03:40:29.562Z,99.90
2019-02-24T03:43:10.524Z,99.90
2019-02-24T03:45:51.401Z,99.90
2019-02-24T03:48:32.221Z,99.90
2019-02-24T03:51:13.243Z,99.90
2019-02-24T03:53:54.139Z,99.90
2019-02-24T03:56:34.886Z,99.90
2019-02-24T03:59:15.491Z,99.90
2019-02-24T04:01:56.567Z,99.90
2019-02-24T04:04:37.157Z,99.90
2019-02-24T04:07:18.056Z,99.90
2019-02-24T04:09:58.849Z,99.90
2019-02-24T04:12:39.711Z,99.90
2019-02-24T04:15:20.429Z,99.90
2019-02-24T04:18:01.293Z,99.90
2019-02-24T04:20:29.870Z,99.90
2019-02-24T04:23:17.665Z,99.90
2019-02-24T04:25:58.012Z,99.90
2019-02-24T04:28:38.456Z,99.90
2019-02-24T04:31:19.451Z,99.90
2019-02-24T04:34:00.074Z,99.90
2019-02-24T04:36:40.566Z,99.90
2019-02-24T04:39:21.537Z,99.90
2019-02-24T04:42:02.629Z,99.90
2019-02-24T04:44:43.479Z,99.90
2019-02-24T04:47:24.055Z,99.90
2019-02-24T04:50:07.018Z,99.90
2019-02-24T04:52:47.956Z,99.90
2019-02-24T04:55:28.620Z,99.90
2019-02-24T04:58:09.664Z,99.90
2019-02-24T05:00:50.448Z,99.90
2019-02-24T05:03:31.095Z,99.90
2019-02-24T05:06:11.699Z,99.90
2019-02-24T05:08:52.611Z,99.90
2019-02-24T05:11:32.991Z,99.90
2019-02-24T05:14:13.640Z,99.90
2019-02-24T05:16:54.756Z,99.90
2019-02-24T05:19:33.607Z,99.90
2019-02-24T05:22:14.818Z,99.90
2019-02-24T05:24:55.713Z,99.90
2019-02-24T05:27:36.812Z,99.90
2019-02-24T05:30:17.240Z,99.90
2019-02-24T05:32:58.081Z,99.90
2019-02-24T05:35:26.539Z,99.90
2019-02-24T05:38:14.370Z,99.90
2019-02-24T05:41:02.232Z,99.90
2019-02-24T05:43:42.511Z,99.90
2019-02-24T05:46:23.546Z,99.90
2019-02-24T05:49:04.118Z,99.90
2019-02-24T05:51:44.956Z,99.90
2019-02-24T05:54:25.546Z,99.90
2019-02-24T05:57:06.677Z,99.90
2019-02-24T05:59:55.042Z,99.90
2019-02-24T06:02:29.666Z,99.90
2019-02-24T06:05:10.663Z,99.90
2019-02-24T06:07:51.705Z,99.90
2019-02-24T06:10:32.541Z,99.90
2019-02-24T06:13:13.295Z,99.90
2019-02-24T06:15:54.405Z,99.90
2019-02-24T06:18:35.349Z,99.90
2019-02-24T06:21:16.158Z,99.90
2019-02-24T06:23:57.308Z,99.90
2019-02-24T06:26:38.042Z,99.90
2019-02-24T06:29:18.808Z,99.90
2019-02-24T06:31:47.296Z,99.90
2019-02-24T06:34:15.837Z,99.90
2019-02-24T06:37:03.636Z,99.90
2019-02-24T06:39:51.420Z,99.90
2019-02-24T06:42:32.463Z,99.90
2019-02-24T06:45:13.503Z,99.90
2019-02-24T06:47:54.428Z,99.90
2019-02-24T06:50:54.350Z,99.90
2019-02-24T06:53:34.853Z,99.90
2019-02-24T06:56:15.745Z,99.90
2019-02-24T06:58:56.705Z,99.90
2019-02-24T07:01:37.764Z,99.90
2019-02-24T07:04:18.743Z,99.90
2019-02-24T07:06:59.828Z,99.90
2019-02-24T07:09:40.891Z,99.90
2019-02-24T07:12:21.767Z,99.90
2019-02-24T07:15:02.281Z,99.90
2019-02-24T07:17:43.283Z,99.90
2019-02-24T07:20:24.011Z,99.90
2019-02-24T07:23:04.560Z,99.90
2019-02-24T07:25:45.368Z,99.90
2019-02-24T07:28:13.838Z,99.90
2019-02-24T07:30:42.300Z,99.90
2019-02-24T07:33:30.258Z,99.90
2019-02-24T07:36:18.062Z,99.90
2019-02-24T07:38:58.369Z,99.90
2019-02-24T07:44:38.022Z,99.90
2019-02-24T07:47:06.576Z,99.90
2019-02-24T07:49:54.463Z,99.90
2019-02-24T07:52:42.259Z,99.90
2019-02-24T07:55:10.745Z,99.90
2019-02-24T07:57:58.543Z,99.90
2019-02-24T08:00:39.798Z,99.90
2019-02-24T08:03:20.751Z,99.90
2019-02-24T08:06:01.772Z,99.90
2019-02-24T08:08:42.575Z,99.90
2019-02-24T08:11:23.511Z,99.90
2019-02-24T08:20:06.877Z,98.70
2019-02-24T08:22:47.774Z,98.60
2019-02-24T08:25:28.365Z,97.30
2019-02-24T08:28:09.297Z,96.60
2019-02-24T08:30:50.195Z,95.60
2019-02-24T08:33:31.276Z,94.50
2019-02-24T08:36:12.215Z,94.20
2019-02-24T08:38:53.341Z,94.80
2019-02-24T08:41:33.984Z,95.10
2019-02-24T08:44:14.668Z,91.30
2019-02-24T08:46:55.348Z,90.10
2019-02-24T08:49:36.216Z,92.10
2019-02-24T08:52:16.899Z,91.30
2019-02-24T08:54:57.917Z,88.10
2019-02-24T08:57:38.913Z,87.50
2019-02-24T09:00:19.729Z,86.20
2019-02-24T09:03:00.625Z,85.90
2019-02-24T09:05:41.512Z,84.50
2019-02-24T09:08:22.406Z,79.10
2019-02-24T09:11:03.000Z,73.50
2019-02-24T09:13:43.769Z,74.60
2019-02-24T09:16:24.597Z,73.20
2019-02-24T09:19:05.560Z,73.70
2019-02-24T09:21:46.561Z,72.90
2019-02-24T09:24:15.016Z,76.00
2019-02-24T09:27:02.823Z,72.10
2019-02-24T09:29:51.453Z,72.60
2019-02-24T09:32:32.187Z,73.70
2019-02-24T09:35:00.726Z,71.60
2019-02-24T09:37:29.208Z,71.10
2019-02-24T09:39:57.692Z,71.80
2019-02-24T09:42:45.558Z,69.10
2019-02-24T09:45:33.384Z,72.60
2019-02-24T09:48:01.931Z,76.00
2019-02-24T09:50:49.816Z,71.30
2019-02-24T09:53:37.614Z,69.60
2019-02-24T09:56:17.883Z,67.70
2019-02-24T09:58:58.601Z,70.00
2019-02-24T10:01:39.501Z,72.20
2019-02-24T10:04:20.554Z,68.10
2019-02-24T10:06:49.038Z,67.90
2019-02-24T10:09:36.846Z,68.50
2019-02-24T10:12:05.486Z,67.20
2019-02-24T10:14:53.280Z,70.30
2019-02-24T10:17:21.755Z,66.80
2019-02-24T10:19:50.229Z,68.40
2019-02-24T10:22:38.009Z,65.90
2019-02-24T10:25:46.550Z,64.40
2019-02-24T10:31:19.737Z,63.80
2019-02-24T10:33:57.470Z,62.50
2019-02-24T10:36:26.000Z,61.10
2019-02-24T10:39:13.824Z,59.70
2019-02-24T10:42:01.664Z,60.40
2019-02-24T10:44:42.712Z,61.10
2019-02-24T10:47:23.084Z,62.30
2019-02-24T10:49:51.674Z,62.60
2019-02-24T10:52:20.196Z,63.70
2019-02-24T10:55:08.128Z,64.20
2019-02-24T10:57:49.094Z,61.90
2019-02-24T11:00:29.617Z,62.30
2019-02-24T11:03:10.439Z,63.90
2019-02-24T11:05:51.115Z,64.00
2019-02-24T11:08:19.603Z,63.60
2019-02-24T11:11:07.492Z,63.80
2019-02-24T11:13:48.111Z,61.10
2019-02-24T11:16:29.083Z,60.40
2019-02-24T11:18:57.563Z,60.80
2019-02-24T11:21:45.367Z,60.60
2019-02-24T11:24:26.184Z,60.80
2019-02-24T11:27:07.111Z,61.10
2019-02-24T11:29:47.965Z,60.20
2019-02-24T11:32:28.837Z,60.20
2019-02-24T11:35:09.830Z,58.50
2019-02-24T11:37:50.570Z,60.10
2019-02-24T11:40:59.152Z,60.10
2019-02-24T11:43:46.940Z,59.70
2019-02-24T11:46:27.726Z,59.60
2019-02-24T11:49:08.241Z,60.00
2019-02-24T11:51:48.812Z,59.90
2019-02-24T11:54:29.738Z,59.80
2019-02-24T11:57:10.547Z,60.40
2019-02-24T11:59:51.003Z,62.50
2019-02-24T12:02:34.509Z,59.10
2019-02-24T12:05:01.902Z,59.90
2019-02-24T12:07:49.784Z,60.60
2019-02-24T12:10:30.647Z,60.00
2019-02-24T12:12:59.116Z,59.60
2019-02-24T12:15:46.965Z,58.20
2019-02-24T12:18:34.858Z,58.20
2019-02-24T12:21:15.526Z,58.20
2019-02-24T12:23:56.153Z,57.10
2019-02-24T12:26:36.941Z,53.60
2019-02-24T12:29:17.640Z,56.30
2019-02-24T12:31:58.590Z,55.00
2019-02-24T12:34:39.264Z,53.40
2019-02-24T12:37:20.047Z,53.60
2019-02-24T12:40:00.780Z,53.80
2019-02-24T12:42:29.276Z,52.50
2019-02-24T12:45:17.084Z,52.30
2019-02-24T12:47:58.072Z,53.00
2019-02-24T12:50:26.540Z,50.80
2019-02-24T12:53:27.606Z,50.50
2019-02-24T12:56:04.010Z,51.00
2019-02-24T12:58:44.235Z,50.20
2019-02-24T13:01:12.722Z,49.60
2019-02-24T13:04:00.626Z,49.40
2019-02-24T13:06:29.101Z,44.90
2019-02-24T13:08:58.428Z,46.80
2019-02-24T13:11:46.369Z,42.00
2019-02-24T13:14:27.155Z,45.40
2019-02-24T13:17:07.884Z,45.20
2019-02-24T13:19:48.679Z,43.50
2019-02-24T13:22:29.642Z,43.20
2019-02-24T13:24:58.136Z,42.70
2019-02-24T13:27:45.952Z,44.80
2019-02-24T13:30:26.961Z,43.80
2019-02-24T13:33:07.899Z,43.60
2019-02-24T13:35:48.869Z,45.40
2019-02-24T13:38:29.568Z,42.90
2019-02-24T13:41:10.516Z,42.80
2019-02-24T13:43:51.376Z,40.90
2019-02-24T13:46:32.213Z,42.80
2019-02-24T13:49:13.032Z,42.20
2019-02-24T13:51:53.953Z,40.10
2019-02-24T13:54:34.339Z,39.50
2019-02-24T13:57:15.311Z,39.70
2019-02-24T13:59:55.883Z,40.10
2019-02-24T14:02:36.744Z,38.90
2019-02-24T14:05:17.233Z,40.00
2019-02-24T14:07:57.989Z,38.80
2019-02-24T14:10:38.998Z,38.40
2019-02-24T14:13:19.759Z,38.50
2019-02-24T14:16:00.653Z,38.40
2019-02-24T14:18:41.405Z,39.20
2019-02-24T14:21:22.180Z,39.50
2019-02-24T14:24:03.179Z,39.50
2019-02-24T14:26:43.520Z,39.30
2019-02-24T14:29:24.858Z,39.10
2019-02-24T14:32:05.836Z,40.50
2019-02-24T14:34:34.353Z,40.90
2019-02-24T14:37:22.151Z,41.20
2019-02-24T14:40:03.000Z,39.50
2019-02-24T14:42:43.737Z,39.30
2019-02-24T14:45:24.291Z,38.90
2019-02-24T14:47:52.830Z,39.20
2019-02-24T14:50:40.648Z,38.40
2019-02-24T14:53:28.507Z,37.40
2019-02-24T14:56:09.457Z,39.70
2019-02-24T14:58:50.334Z,39.60
2019-02-24T15:01:31.250Z,40.80
2019-02-24T15:10:23.239Z,41.60
2019-02-24T15:13:04.152Z,42.70
2019-02-24T15:15:44.707Z,44.60
2019-02-24T15:18:25.473Z,44.50
2019-02-24T15:21:06.260Z,45.80
2019-02-24T15:23:47.289Z,44.60
2019-02-24T15:26:29.347Z,43.60
2019-02-24T15:29:10.620Z,45.80
2019-02-24T15:31:51.200Z,40.30
2019-02-24T15:34:31.686Z,40.10
2019-02-24T15:37:12.239Z,46.60
2019-02-24T15:39:52.912Z,49.10
2019-02-24T15:42:33.390Z,50.10
2019-02-24T15:45:14.468Z,50.50
2019-02-24T15:47:55.175Z,51.30
2019-02-24T15:50:35.471Z,51.70
2019-02-24T15:53:15.949Z,51.60
2019-02-24T15:55:56.296Z,52.00
2019-02-24T15:58:37.252Z,52.60
2019-02-24T16:01:18.172Z,51.90
2019-02-24T16:03:58.712Z,52.70
2019-02-24T16:06:39.562Z,53.60
2019-02-24T16:09:20.304Z,54.80
2019-02-24T16:12:00.877Z,54.90
2019-02-24T16:14:41.361Z,55.90
2019-02-24T16:17:21.995Z,56.10
2019-02-24T16:20:02.386Z,57.10
2019-02-24T16:22:42.860Z,57.60
2019-02-24T16:25:23.427Z,58.50
2019-02-24T16:27:52.017Z,59.50
2019-02-24T16:30:39.831Z,60.40
2019-02-24T16:33:27.640Z,60.50
2019-02-24T16:35:56.112Z,61.10
2019-02-24T16:38:36.515Z,61.80
2019-02-24T16:41:17.254Z,62.20
2019-02-24T16:43:58.279Z,62.20
2019-02-24T16:46:38.936Z,62.80
2019-02-24T16:49:19.910Z,63.00
2019-02-24T16:52:00.933Z,63.60
2019-02-24T16:54:41.686Z,63.40
2019-02-24T16:57:22.450Z,64.50
2019-02-24T17:00:03.175Z,64.50
2019-02-24T17:02:44.385Z,64.90
2019-02-24T17:05:25.451Z,65.00
2019-02-24T17:08:06.378Z,66.10
2019-02-24T17:10:47.386Z,66.10
2019-02-24T17:19:38.520Z,65.10
2019-02-24T17:22:19.137Z,66.90
2019-02-24T17:24:59.903Z,67.70
2019-02-24T17:27:40.747Z,67.50
2019-02-24T17:31:07.354Z,67.60
2019-02-24T17:33:39.734Z,67.50
2019-02-24T17:36:20.363Z,67.70
2019-02-24T17:39:01.398Z,67.00
2019-02-24T17:41:42.594Z,67.80
2019-02-24T17:44:23.350Z,68.30
2019-02-24T17:47:04.207Z,67.80
2019-02-24T17:49:45.061Z,68.20
2019-02-24T17:52:25.532Z,67.60
2019-02-24T17:55:06.638Z,67.50
2019-02-24T17:57:47.382Z,68.00
2019-02-24T18:00:29.856Z,68.10
2019-02-24T18:03:10.872Z,66.70
2019-02-24T18:05:51.656Z,67.00
2019-02-24T18:08:32.425Z,70.50
2019-02-24T18:11:13.342Z,72.40
2019-02-24T18:13:41.799Z,74.30
2019-02-24T18:16:29.637Z,72.50
2019-02-24T18:19:17.428Z,71.40
2019-02-24T18:21:58.297Z,71.90
2019-02-24T18:24:39.181Z,72.20
2019-02-24T18:27:07.660Z,71.90
2019-02-24T18:29:55.452Z,72.00
2019-02-24T18:32:36.325Z,72.20
2019-02-24T18:35:17.335Z,72.20
2019-02-24T18:37:58.188Z,72.70
2019-02-24T18:40:38.816Z,72.50
2019-02-24T18:43:19.567Z,72.10
2019-02-24T18:46:00.319Z,70.00
2019-02-24T18:48:41.266Z,69.90
2019-02-24T18:51:22.092Z,69.60
2019-02-24T18:54:02.891Z,70.20
2019-02-24T18:56:43.771Z,70.10
2019-02-24T18:59:24.301Z,70.30
2019-02-24T19:01:52.776Z,70.80
2019-02-24T19:04:40.585Z,71.50
2019-02-24T19:07:21.532Z,70.90
2019-02-24T19:09:50.070Z,70.80
2019-02-24T19:12:18.606Z,71.00
2019-02-24T19:15:27.120Z,70.30
2019-02-24T19:18:14.947Z,70.60
2019-02-24T19:29:24.038Z,71.10
2019-02-24T19:31:52.569Z,69.10
2019-02-24T19:34:21.034Z,72.50
2019-02-24T19:36:49.506Z,72.80
2019-02-24T19:39:37.326Z,67.40
2019-02-24T19:42:05.930Z,65.90
2019-02-24T19:44:53.751Z,67.80
2019-02-24T19:47:22.279Z,69.80
2019-02-24T19:50:30.830Z,72.10
2019-02-24T19:52:59.381Z,70.00
2019-02-24T19:55:47.256Z,70.20
2019-02-24T19:58:35.053Z,68.80
2019-02-24T20:01:03.539Z,68.80
2019-02-24T20:03:51.344Z,68.80
2019-02-24T20:06:19.907Z,69.40
2019-02-24T20:09:07.863Z,70.50
2019-02-24T20:11:48.302Z,71.40
2019-02-24T20:14:16.769Z,69.70
2019-02-24T20:17:04.581Z,68.80
2019-02-24T20:19:52.390Z,70.70
2019-02-24T20:22:32.692Z,71.50
2019-02-24T20:25:01.232Z,72.20
2019-02-24T20:27:29.692Z,71.50
2019-02-24T20:29:58.187Z,71.70
2019-02-24T20:32:45.975Z,70.20
2019-02-24T20:35:14.488Z,69.40
2019-02-24T20:38:02.383Z,71.10
2019-02-24T20:40:50.812Z,72.30
2019-02-24T20:43:31.934Z,72.40
2019-02-24T20:46:13.113Z,72.20
2019-02-24T20:48:54.265Z,71.50
2019-02-24T20:51:22.743Z,72.00
2019-02-24T20:53:51.206Z,72.40
2019-02-24T20:56:39.033Z,71.60
2019-02-24T20:59:27.536Z,72.70
2019-02-24T21:01:56.045Z,74.00
2019-02-24T21:04:24.504Z,72.40
2019-02-24T21:07:12.388Z,72.20
2019-02-24T21:09:40.879Z,72.40
2019-02-24T21:12:28.739Z,70.30
2019-02-24T21:15:17.131Z,68.90
2019-02-24T21:17:57.814Z,68.80
2019-02-24T21:20:38.964Z,69.40
2019-02-24T21:23:07.431Z,71.00
2019-02-24T21:25:55.323Z,71.70
2019-02-24T21:28:43.118Z,71.10
2019-02-24T21:31:22.040Z,70.50
2019-02-24T21:34:09.852Z,70.70
2019-02-24T21:36:50.455Z,71.10
2019-02-24T21:39:31.344Z,70.80
2019-02-24T21:41:59.957Z,70.80
2019-02-24T21:44:47.808Z,69.90
2019-02-24T21:47:35.678Z,69.60
2019-02-24T21:50:16.505Z,70.90
2019-02-24T21:52:45.060Z,70.00
2019-02-24T21:55:32.867Z,69.00
2019-02-24T21:58:13.673Z,68.80
2019-02-24T22:00:54.653Z,69.20
2019-02-24T22:03:35.421Z,68.60
2019-02-24T22:06:16.204Z,67.90
2019-02-24T22:08:57.088Z,67.80
2019-02-24T22:11:38.052Z,67.90
2019-02-24T22:14:19.029Z,68.10
2019-02-24T22:16:47.505Z,69.40
2019-02-24T22:19:35.369Z,70.70
2019-02-24T22:22:23.248Z,70.70
2019-02-24T22:25:04.363Z,70.00
2019-02-24T22:27:45.645Z,71.10
2019-02-24T22:30:26.579Z,71.60
2019-02-24T22:33:07.436Z,72.10
2019-02-24T22:35:48.159Z,72.40
2019-02-24T22:38:16.765Z,72.10
2019-02-24T22:40:54.038Z,72.10
2019-02-24T22:43:34.772Z,72.20
2019-02-24T22:46:16.000Z,72.10
2019-02-24T22:48:44.490Z,73.20
2019-02-24T22:51:13.033Z,74.80
2019-02-24T22:54:00.857Z,74.90
2019-02-24T22:56:29.312Z,74.90
2019-02-24T22:59:09.980Z,75.00
2019-02-24T23:01:50.553Z,74.60
2019-02-24T23:04:31.506Z,75.20
2019-02-24T23:07:12.571Z,75.70
2019-02-24T23:09:53.788Z,75.30
2019-02-24T23:12:22.308Z,76.00
2019-02-24T23:15:10.201Z,76.60
2019-02-24T23:17:57.996Z,77.00
2019-02-24T23:20:39.214Z,76.70
2019-02-24T23:23:07.748Z,77.40
2019-02-24T23:25:55.635Z,77.70
2019-02-24T23:28:43.439Z,78.10
2019-02-24T23:31:24.365Z,77.40
2019-02-24T23:34:05.399Z,77.20
2019-02-24T23:36:46.581Z,77.00
2019-02-24T23:39:27.583Z,77.00
2019-02-24T23:44:58.056Z,77.70
2019-02-24T23:47:38.899Z,77.70
2019-02-24T23:50:19.837Z,78.10
2019-02-24T23:53:00.562Z,78.80
2019-02-24T23:55:29.257Z,79.20
2019-02-24T23:58:10.313Z,79.50
